Strona główna
METAR-TAF:

METAR-TAF

Lotnisko :

Port lotniczy Teheran-Mehrabad

Teheran, Iran

Szerokość geograficzna: 35-41N, Długość geograficzna: 051-21E, wysokość: 1204 m

Aktualna obserwacja pogody

Raport powstał 37 minut temu, godzina 21:30 UTC
Wiatr 4 kt od północ
Temperatura 16°C
Wilgotność 42%
Ciśnienie 1022 hPa
Widzialność 10 km lub więcej
Brak chmur poniżej 1500 m i brak chmur cumulonimbus

METAR: OIII 182130Z 35004KT CAVOK 16/03 Q1022 A3019

czas: 01:37 (22:07 UTC)

Prognoza

Raport powstał 4 godziny i 22 minut temu, godzina 17:45 UTC
Prognoza ważna od 18 godzina 18 UTC do 19 godzina 24 UTC
Wiatr 8 kt od południowy wschód
Widzialność: 8000 m
Mało chmury na wysokości 3500 ft
Przejściowo
od 19 godzina 18 UTC do 19 godzina 24 UTC
Mało chmury na wysokości 3500 ft
Przerywane chmury na wysokości 10000 ft

TAF: OIII 181745Z 1818/1924 13004MPS 8000 FEW035 TEMPO 1918/1924 FEW035 BKN100

Obserwacja i prognoza pogody dla ponad 4000 lotnisk (raport METAR i TAF).

Dostępne stacje oznaczono żółtymi i czerwonymi punktami na mapie.

Najedź kursorem aby zobaczyć nazwę stacji.

Kliknij aby zobaczyć obserwacje i prognozy pogody.

Aby zmienić mapę: kliknij na zielony przycisk z czarnym krzyżykiem, aby powiększyć; na zielony przycisk z myślnikiem, aby pomniejszyć; na zielone strzałki, aby przejść do map sąsiednich.


METAR-TAF: